Terminal Aerodrome Forecast
Issued by NWS

Home | Current Version | Previous Version | Text Only | Print | Product List | Glossary On
Versions: 1 2 3 4 5 6 7 8 9 10 11 12 13 14 15 16 17 18 19 20 21 22 23 24
021
FTAK31 PAFA 241138
TAFABT
TAF
PABT 241138Z 2412/2512 22006KT P6SM FEW018 BKN070
     FM242100 22011G18KT P6SM VCSH OVC050
     FM250100 22011G18KT P6SM -SHRA BKN025 OVC050
     FM250800 18004KT 5SM -SHRA BR BKN025 OVC050=

USA.gov is the U.S. government's official web portal to all federal, state and local government web resources and services.